createdAt,value
2023-03-13T15:24:19.740Z,19.60
2023-03-13T15:27:45.413Z,19.60
2023-03-13T15:31:08.276Z,19.70
2023-03-13T15:34:18.976Z,19.70
2023-03-13T15:56:02.371Z,19.40
2023-03-13T16:06:44.831Z,19.30
2023-03-13T16:32:33.425Z,18.80
2023-03-13T16:35:55.561Z,18.70
2023-03-13T16:53:24.280Z,17.90
2023-03-13T17:00:09.969Z,17.50
2023-03-13T17:03:41.173Z,17.30
2023-03-13T17:11:17.275Z,17.10
2023-03-13T17:18:09.446Z,16.90
2023-03-13T17:39:43.512Z,15.70
2023-03-13T17:45:23.542Z,15.00
2023-03-13T17:48:39.437Z,14.80
2023-03-13T17:51:39.811Z,14.80
2023-03-13T19:07:15.110Z,13.60
2023-03-13T19:09:52.649Z,13.30
2023-03-13T19:12:20.942Z,13.30
2023-03-13T19:14:56.326Z,13.30
2023-03-13T19:21:10.815Z,13.30
2023-03-13T19:23:55.601Z,13.10
2023-03-13T19:26:35.902Z,13.00
2023-03-13T19:29:21.667Z,12.90
2023-03-13T19:32:03.477Z,12.90
2023-03-13T19:34:39.064Z,12.90
2023-03-13T19:37:29.847Z,13.00
2023-03-13T19:40:28.386Z,13.00
2023-03-13T19:43:14.935Z,12.90
2023-03-13T19:46:03.419Z,12.80
2023-03-13T19:48:39.701Z,12.70
2023-03-13T19:51:22.494Z,12.60
2023-03-13T19:53:57.969Z,12.60
2023-03-13T19:56:39.249Z,12.50
2023-03-13T19:59:18.766Z,12.50
2023-03-13T20:01:56.195Z,12.50
2023-03-13T20:04:25.361Z,12.50
2023-03-13T20:07:09.055Z,12.50
2023-03-13T20:09:38.836Z,12.40
2023-03-13T20:12:13.323Z,12.40
2023-03-13T20:14:41.415Z,12.40
2023-03-13T20:17:11.924Z,12.40
2023-03-13T20:19:44.596Z,12.40
2023-03-13T20:22:26.353Z,12.40
2023-03-13T20:24:55.949Z,12.50
2023-03-13T20:27:25.487Z,12.40
2023-03-13T20:29:53.514Z,12.40
2023-03-13T20:32:21.496Z,12.40
2023-03-13T20:34:49.426Z,12.40
2023-03-13T20:37:17.514Z,12.40
2023-03-13T20:39:45.455Z,12.30
2023-03-13T20:42:13.430Z,12.30
2023-03-13T20:44:43.125Z,12.20
2023-03-13T20:47:11.149Z,12.20
2023-03-13T20:49:41.486Z,12.20
2023-03-13T20:52:09.612Z,12.10
2023-03-13T20:54:42.534Z,12.10
2023-03-13T20:57:11.094Z,12.10
2023-03-13T20:59:39.442Z,12.10
2023-03-13T21:02:09.888Z,12.10
2023-03-13T21:04:38.069Z,12.10
2023-03-13T21:07:06.103Z,12.00
2023-03-13T21:09:37.458Z,12.00
2023-03-13T21:12:06.140Z,12.10
2023-03-13T21:14:37.289Z,12.00
2023-03-13T21:17:12.425Z,12.00
2023-03-13T21:19:43.092Z,11.90
2023-03-13T21:22:11.302Z,11.90
2023-03-13T21:24:39.736Z,11.90
2023-03-13T21:27:10.786Z,11.80
2023-03-13T21:29:44.057Z,11.80
2023-03-13T21:32:22.230Z,11.80
2023-03-13T21:34:59.723Z,11.70
2023-03-13T21:37:33.117Z,11.60
2023-03-13T21:40:03.517Z,11.50
2023-03-13T21:42:36.336Z,11.40
2023-03-13T21:45:08.307Z,11.40
2023-03-13T21:47:38.048Z,11.30
2023-03-13T21:50:13.969Z,11.30
2023-03-13T21:52:44.633Z,11.30
2023-03-13T21:55:15.585Z,11.20
2023-03-13T21:57:46.524Z,11.10
2023-03-13T22:00:23.125Z,11.10
2023-03-13T22:02:52.585Z,11.00
2023-03-13T22:05:24.033Z,10.90
2023-03-13T22:07:52.101Z,10.90
2023-03-13T22:10:24.031Z,10.90
2023-03-13T22:12:59.880Z,10.90
2023-03-13T22:15:51.623Z,10.90
2023-03-13T22:21:10.045Z,10.80
2023-03-13T22:24:00.109Z,10.80
2023-03-13T22:26:43.406Z,10.70
2023-03-13T22:37:23.143Z,10.60
2023-03-13T22:40:05.237Z,10.50
2023-03-13T22:42:42.171Z,10.50
2023-03-13T22:45:16.221Z,10.50
2023-03-13T22:48:04.437Z,10.50
2023-03-13T22:50:37.491Z,10.40
2023-03-13T22:53:24.598Z,10.50
2023-03-13T22:56:12.909Z,10.40
2023-03-13T22:58:49.663Z,10.40
2023-03-13T23:01:25.432Z,10.40
2023-03-13T23:03:58.742Z,10.30
2023-03-13T23:06:39.196Z,10.30
2023-03-13T23:09:11.701Z,10.30
2023-03-13T23:11:56.123Z,10.30
2023-03-13T23:14:30.372Z,10.40
2023-03-13T23:16:59.089Z,10.40
2023-03-13T23:19:43.532Z,10.40
2023-03-13T23:22:18.365Z,10.30
2023-03-13T23:24:57.909Z,10.30
2023-03-13T23:27:31.327Z,10.30
2023-03-13T23:30:04.296Z,10.30
2023-03-13T23:32:48.037Z,10.20
2023-03-13T23:35:22.128Z,10.20
2023-03-13T23:37:55.213Z,10.20
2023-03-13T23:40:25.579Z,10.20
2023-03-13T23:42:55.123Z,10.20
2023-03-13T23:45:23.421Z,10.20
2023-03-13T23:47:58.524Z,10.20
2023-03-13T23:50:28.371Z,10.20
2023-03-13T23:53:01.100Z,10.20
2023-03-13T23:55:36.522Z,10.10
2023-03-13T23:58:10.309Z,10.20
